Enterprise, UT (84725)

9:16 AM MDT on July 23, 2016 (GMT -0600)
APRSWXNET | | Change Station

Elev 5337 ft 37.57 °N, 113.71 °W | Updated 12 minutes ago

Clear
Clear
78 °F
Feels Like 78 °F
N
5
Wind Variable Wind from ENE
Gusts 0.0 mph

Today
High -- | Low -- °F
--% Chance of Precip.
Yesterday
High -- | Low -- °F
Precip. -- in
Pressure 29.94 in
Visibility 10.0 miles
Clouds Clear
Heat Index 78 °F
Dew Point 43 °F
Humidity 29%
Rainfall in
Snow Depth Not available.
6:31 AM 8:50 PM
Waning Gibbous, 84% visible
METAR KCDC 231453Z AUTO 01005KT 10SM CLR 24/07 A3021 RMK AO2 SLP139 T02390067 53008
Pressure 29.94 in
Visibility 10.0 miles
Clouds Clear
Heat Index 78 °F
Dew Point 43 °F
Humidity 29%
Rainfall in
Snow Depth Not available.
6:31 AM 8:50 PM
Waning Gibbous, 84% visible
METAR KCDC 231453Z AUTO 01005KT 10SM CLR 24/07 A3021 RMK AO2 SLP139 T02390067 53008

10-Day Weather Forecast

Almanac

Astronomy

Jul. 23, 2016 Rise Set
Actual Time
Civil Twilight
Nautical Twilight
Astronomical Twilight
Moon
Length of Visible Light
Length of Day
Tomorrow will be .
, % of the Moon is Illuminated

Today's Extremes

State Highs State Lows

Community

WunderPhotos

Upload Photos

1,926,837 photos uploaded!

WunderBlog® & News

Nearby

Air Quality

  Air Quality AQ Index Pollutant
Not available.

Snow Depth

Station Depth Elevation

Earthquake Activity

City Distance Mag. Time & Date
Minimum magnitude displayed is 2.5.

Coastal Water Temperatures

Place Temperature

Stations

Nearby Weather Stations

Station Location Temp. Windchill Dew Point Humidity Wind Precip. Elev Updated Type
                   

Watches & Warnings

There are currently no watches in effect.